Time;durP1;ratioP1;P1;durP2;ratioP2;P2;SDS_P1;SDS_P2;PMS_P1;PMS_P2;Temp;Humidity;BMP_temperature;BMP_pressure;BME280_temperature;BME280_humidity;BME280_pressure;Samples;Min_cycle;Max_cycle;Signal;HPM_P1;HPM_P2
2022/10/10 00:00:40;;;;;;;7.55;4.00;;;6.00;99.90;;;;;;5050020;28;20025;-54
2022/10/10 00:03:06;;;;;;;6.13;3.80;;;5.90;99.90;;;;;;5049974;28;20426;-55
2022/10/10 00:05:32;;;;;;;6.50;3.88;;;5.90;99.90;;;;;;5050008;28;20029;-52
2022/10/10 00:07:58;;;;;;;8.07;3.88;;;6.00;99.90;;;;;;5049090;28;20093;-53
2022/10/10 00:10:24;;;;;;;6.55;4.03;;;5.90;99.90;;;;;;5032121;28;20411;-54
2022/10/10 00:12:50;;;;;;;7.65;4.38;;;5.90;99.90;;;;;;5031782;28;20021;-53
2022/10/10 00:15:16;;;;;;;10.35;3.75;;;5.90;99.90;;;;;;5049696;28;20021;-51
2022/10/10 00:17:42;;;;;;;6.72;3.78;;;5.90;99.90;;;;;;5049474;28;20029;-50
2022/10/10 00:20:13;;;;;;;5.22;3.78;;;5.90;99.90;;;;;;5050177;28;20095;-49
2022/10/10 00:22:39;;;;;;;7.38;4.40;;;5.90;99.90;;;;;;5049434;28;20393;-54
2022/10/10 00:25:06;;;;;;;7.88;4.65;;;5.90;99.90;;;;;;5050771;28;20462;-52
2022/10/10 00:27:32;;;;;;;7.82;3.50;;;5.80;99.90;;;;;;5050984;28;20045;-56
2022/10/10 00:29:58;;;;;;;11.02;5.03;;;5.90;99.90;;;;;;5047181;28;20926;-60
2022/10/10 00:32:24;;;;;;;7.65;4.22;;;5.80;99.90;;;;;;5047927;28;20501;-57
2022/10/10 00:34:50;;;;;;;6.38;3.95;;;5.80;99.90;;;;;;5049051;28;20025;-61
2022/10/10 00:37:15;;;;;;;7.97;4.18;;;5.80;99.90;;;;;;5048782;28;20024;-50
2022/10/10 00:39:41;;;;;;;6.68;3.90;;;5.80;99.90;;;;;;5049290;28;20048;-55
2022/10/10 00:42:16;;;;;;;6.65;4.60;;;5.80;99.90;;;;;;5049610;28;20039;-58
2022/10/10 00:44:43;;;;;;;6.78;4.15;;;5.80;99.90;;;;;;5048924;28;20056;-55
2022/10/10 00:47:09;;;;;;;6.40;3.97;;;5.80;99.90;;;;;;5049521;28;20432;-62
2022/10/10 00:49:38;;;;;;;7.25;3.95;;;5.80;99.90;;;;;;5053786;28;20017;-60
2022/10/10 00:52:06;;;;;;;7.60;4.35;;;5.80;99.90;;;;;;5053405;28;20037;-66
2022/10/10 00:54:32;;;;;;;10.52;4.65;;;5.80;99.90;;;;;;5053989;28;20036;-66
2022/10/10 00:57:04;;;;;;;9.30;4.82;;;5.80;99.90;;;;;;5052964;28;20064;-66
2022/10/10 00:59:31;;;;;;;;;;;5.80;99.90;;;;;;5054301;28;20112;-66
2022/10/10 01:01:56;;;;;;;7.88;4.03;;;5.70;99.90;;;;;;5053710;28;19917;-66
2022/10/10 01:04:29;;;;;;;10.15;4.22;;;5.70;99.90;;;;;;5053341;28;20097;-66
2022/10/10 01:06:55;;;;;;;9.48;4.68;;;5.70;99.90;;;;;;5053556;28;20037;-61
2022/10/10 01:09:21;;;;;;;5.97;4.15;;;5.70;99.90;;;;;;5053394;28;20496;-67
2022/10/10 01:12:07;;;;;;;6.18;3.75;;;5.70;99.90;;;;;;5053136;28;20018;-66
2022/10/10 01:15:00;;;;;;;7.18;4.80;;;5.70;99.90;;;;;;5053959;28;20037;-50
2022/10/10 01:17:32;;;;;;;8.35;4.80;;;5.60;99.90;;;;;;5053030;28;20039;-50
2022/10/10 01:20:16;;;;;;;8.57;4.70;;;5.60;99.90;;;;;;5034356;28;20021;-50
2022/10/10 01:23:19;;;;;;;6.78;4.00;;;5.70;99.90;;;;;;5052863;28;20041;-50
2022/10/10 01:25:59;;;;;;;8.40;4.30;;;5.70;99.90;;;;;;5052198;28;20458;-52
2022/10/10 01:28:30;;;;;;;9.57;4.47;;;5.60;99.90;;;;;;5053089;28;20088;-48
2022/10/10 01:30:57;;;;;;;8.73;3.97;;;5.70;99.90;;;;;;5052752;28;20041;-47
2022/10/10 01:33:37;;;;;;;6.43;3.95;;;5.70;99.90;;;;;;5052251;28;20029;-52
2022/10/10 01:36:05;;;;;;;7.10;3.60;;;5.70;99.90;;;;;;5052776;28;20108;-47
2022/10/10 01:38:40;;;;;;;7.95;4.57;;;5.70;99.90;;;;;;5052751;28;20435;-59
2022/10/10 01:41:39;;;;;;;9.05;4.78;;;5.70;99.90;;;;;;5052412;28;20036;-50
2022/10/10 01:44:04;;;;;;;8.20;4.72;;;5.70;99.90;;;;;;5052829;28;20063;-53
2022/10/10 01:46:31;;;;;;;7.00;4.30;;;5.70;99.90;;;;;;5052068;28;20413;-50
2022/10/10 01:48:58;;;;;;;7.97;4.45;;;5.70;99.90;;;;;;5052266;28;20036;-47
2022/10/10 01:52:15;;;;;;;7.10;4.28;;;5.70;99.90;;;;;;5052407;28;20408;-47
2022/10/10 01:55:10;;;;;;;8.20;4.32;;;5.60;99.90;;;;;;4951306;29;20159;-47
2022/10/10 01:57:57;;;;;;;8.90;4.28;;;5.60;99.90;;;;;;5039317;28;20037;-51
2022/10/10 02:00:23;;;;;;;9.68;4.97;;;5.60;99.90;;;;;;5051017;28;20025;-58
2022/10/10 02:03:07;;;;;;;7.97;4.63;;;5.60;99.90;;;;;;5051967;28;20103;-48
2022/10/10 02:05:48;;;;;;;7.57;4.38;;;5.60;99.90;;;;;;5052361;28;20040;-55
2022/10/10 02:08:24;;;;;;;7.35;4.13;;;5.60;99.90;;;;;;5051666;28;20032;-48
2022/10/10 02:11:00;;;;;;;8.75;4.57;;;5.60;99.90;;;;;;5051889;28;20128;-49
2022/10/10 02:13:40;;;;;;;8.45;4.43;;;5.50;99.90;;;;;;5052515;28;20028;-48
2022/10/10 02:16:10;;;;;;;6.82;4.28;;;5.60;99.90;;;;;;5051456;28;20882;-49
2022/10/10 02:18:37;;;;;;;7.00;3.92;;;5.60;99.90;;;;;;5052153;28;20021;-51
2022/10/10 02:21:07;;;;;;;8.38;4.18;;;5.60;99.90;;;;;;5052192;28;20092;-51
2022/10/10 02:23:33;;;;;;;5.78;3.88;;;5.60;99.90;;;;;;5051278;28;20064;-54
2022/10/10 02:25:59;;;;;;;8.07;4.15;;;5.60;99.90;;;;;;5051641;28;20025;-47
2022/10/10 02:28:46;;;;;;;7.47;4.10;;;5.60;99.90;;;;;;5051097;28;20074;-54
2022/10/10 02:31:17;;;;;;;7.85;4.00;;;5.70;99.90;;;;;;5035271;28;20540;-54
2022/10/10 02:33:49;;;;;;;;;;;5.70;99.90;;;;;;5053166;28;20358;-48
2022/10/10 02:36:16;;;;;;;;;;;5.80;99.90;;;;;;5051932;28;19905;-53
2022/10/10 02:38:43;;;;;;;8.02;3.72;;;5.80;99.90;;;;;;5051858;28;20478;-60
2022/10/10 02:41:13;;;;;;;7.63;4.25;;;5.90;99.90;;;;;;5051989;28;20024;-53
2022/10/10 02:43:39;;;;;;;6.63;4.55;;;5.90;99.90;;;;;;5050951;28;20107;-61
2022/10/10 02:46:08;;;;;;;9.70;5.10;;;6.00;99.90;;;;;;5052085;28;20160;-65
2022/10/10 02:48:34;;;;;;;7.13;4.93;;;6.10;99.90;;;;;;5051996;28;20048;-61
2022/10/10 02:51:00;;;;;;;7.25;4.30;;;6.20;99.90;;;;;;5050800;28;20061;-62
2022/10/10 02:53:25;;;;;;;8.38;4.43;;;6.20;99.90;;;;;;5051849;28;20059;-66
2022/10/10 02:55:51;;;;;;;7.95;4.10;;;6.30;99.90;;;;;;5051335;28;20040;-62
2022/10/10 02:58:17;;;;;;;8.30;4.35;;;6.30;99.90;;;;;;5050873;28;20017;-55
2022/10/10 03:00:43;;;;;;;8.75;3.97;;;6.30;99.90;;;;;;5050818;28;20032;-54
2022/10/10 03:03:08;;;;;;;9.23;4.30;;;6.40;99.90;;;;;;5051386;28;20151;-54
2022/10/10 03:05:34;;;;;;;6.55;4.10;;;6.40;99.90;;;;;;5050719;28;20025;-62
2022/10/10 03:07:59;;;;;;;7.13;4.57;;;6.40;99.90;;;;;;5050849;28;20507;-52
2022/10/10 03:10:25;;;;;;;8.63;4.50;;;6.40;99.90;;;;;;5051321;28;20032;-61
2022/10/10 03:12:51;;;;;;;10.15;4.95;;;6.50;99.90;;;;;;5049125;28;20107;-57
2022/10/10 03:15:16;;;;;;;9.10;4.55;;;6.50;99.90;;;;;;5051207;28;20013;-58
2022/10/10 03:17:42;;;;;;;12.57;7.18;;;6.50;99.90;;;;;;5050237;28;20424;-57
2022/10/10 03:20:09;;;;;;;14.77;7.90;;;6.60;99.90;;;;;;5051004;28;20482;-60
2022/10/10 03:22:34;;;;;;;11.98;7.75;;;6.60;99.90;;;;;;5050919;28;20402;-54
2022/10/10 03:25:00;;;;;;;15.13;9.63;;;6.60;99.90;;;;;;5050063;28;20558;-53
2022/10/10 03:27:25;;;;;;;23.55;12.68;;;6.60;99.90;;;;;;5050506;28;20025;-52
2022/10/10 03:29:51;;;;;;;15.88;10.48;;;6.70;99.90;;;;;;5050498;28;20071;-53
2022/10/10 03:32:16;;;;;;;13.93;9.43;;;6.70;99.90;;;;;;5049739;28;20434;-56
2022/10/10 03:34:42;;;;;;;16.63;10.25;;;6.70;99.90;;;;;;5050489;28;20112;-52
2022/10/10 03:37:08;;;;;;;17.70;11.18;;;6.70;99.90;;;;;;5050876;28;20482;-66
2022/10/10 03:39:34;;;;;;;18.38;11.27;;;6.70;99.90;;;;;;5063413;28;20135;-55
2022/10/10 03:41:59;;;;;;;14.27;9.95;;;6.70;99.90;;;;;;5069517;28;20166;-61
2022/10/10 03:44:25;;;;;;;16.40;10.15;;;6.80;99.90;;;;;;5070215;28;20028;-57
2022/10/10 03:46:50;;;;;;;14.63;9.45;;;6.80;99.90;;;;;;5069242;28;20040;-52
2022/10/10 03:49:16;;;;;;;14.13;9.43;;;6.70;99.90;;;;;;5069802;28;20025;-57
2022/10/10 03:51:42;;;;;;;14.55;9.73;;;6.80;99.90;;;;;;5052017;28;20020;-51
2022/10/10 03:54:07;;;;;;;15.38;10.90;;;6.70;99.90;;;;;;5069385;28;20048;-49
2022/10/10 03:56:33;;;;;;;15.60;10.85;;;6.70;99.90;;;;;;5070167;28;20040;-50
2022/10/10 03:58:59;;;;;;;15.50;10.82;;;6.70;99.90;;;;;;5069645;28;20032;-49
2022/10/10 04:01:26;;;;;;;20.15;12.32;;;6.70;99.90;;;;;;5069382;28;20032;-52
2022/10/10 04:03:51;;;;;;;17.55;11.73;;;6.70;99.90;;;;;;5069944;28;20025;-47
2022/10/10 04:06:17;;;;;;;18.38;11.23;;;6.70;99.90;;;;;;5070253;28;20161;-56
2022/10/10 04:08:43;;;;;;;15.75;10.70;;;6.60;99.90;;;;;;5069100;28;20065;-53
2022/10/10 04:11:09;;;;;;;13.68;9.80;;;6.60;99.90;;;;;;5069905;28;20027;-49
2022/10/10 04:13:34;;;;;;;14.57;9.15;;;6.60;99.90;;;;;;5070043;28;20024;-53
2022/10/10 04:16:00;;;;;;;17.40;10.90;;;6.60;99.90;;;;;;5068970;28;20070;-51
2022/10/10 04:18:26;;;;;;;18.30;10.35;;;6.60;99.90;;;;;;5069722;28;20032;-52
2022/10/10 04:20:51;;;;;;;20.45;12.60;;;6.60;99.90;;;;;;5066694;28;20020;-49
2022/10/10 04:23:17;;;;;;;21.20;13.65;;;6.60;99.90;;;;;;5067042;28;20044;-49
2022/10/10 04:25:43;;;;;;;15.65;10.82;;;6.60;99.90;;;;;;5067515;28;20028;-52
2022/10/10 04:28:13;;;;;;;15.82;11.27;;;6.60;99.90;;;;;;5068423;28;20028;-48
2022/10/10 04:30:39;;;;;;;19.73;10.70;;;6.60;99.90;;;;;;5068790;28;20032;-51
2022/10/10 04:33:06;;;;;;;19.08;11.45;;;6.60;99.90;;;;;;5069668;28;20079;-49
2022/10/10 04:35:32;;;;;;;16.05;10.18;;;6.60;99.90;;;;;;5069421;28;20032;-57
2022/10/10 04:37:57;;;;;;;11.57;8.50;;;6.60;99.90;;;;;;5069772;28;20082;-52
2022/10/10 04:40:23;;;;;;;12.65;8.25;;;6.60;99.90;;;;;;5071811;28;20086;-57
2022/10/10 04:42:48;;;;;;;11.75;8.35;;;6.50;99.90;;;;;;5069591;28;20076;-57
2022/10/10 04:45:14;;;;;;;12.57;9.18;;;6.60;99.90;;;;;;5069878;28;20028;-63
2022/10/10 04:47:40;;;;;;;13.82;9.07;;;6.60;99.90;;;;;;5069482;28;20104;-55
2022/10/10 04:50:06;;;;;;;15.13;8.60;;;6.60;99.90;;;;;;5069749;28;20013;-58
2022/10/10 04:52:31;;;;;;;16.52;11.48;;;6.60;99.90;;;;;;5070486;28;20028;-63
2022/10/10 04:54:57;;;;;;;18.48;11.20;;;6.60;99.90;;;;;;5070369;28;20969;-62
2022/10/10 04:57:23;;;;;;;16.20;10.88;;;6.60;99.90;;;;;;5069751;28;20112;-58
2022/10/10 04:59:48;;;;;;;15.27;10.25;;;6.60;99.90;;;;;;5070098;28;20500;-61
2022/10/10 05:02:14;;;;;;;15.70;11.05;;;6.60;99.90;;;;;;5070729;28;20032;-63
2022/10/10 05:04:39;;;;;;;18.48;12.05;;;6.60;99.90;;;;;;5069222;28;20392;-52
2022/10/10 05:07:05;;;;;;;16.48;11.40;;;6.60;99.90;;;;;;5070400;28;20048;-67
2022/10/10 05:09:32;;;;;;;16.20;11.60;;;6.50;99.90;;;;;;5066394;28;20025;-56
2022/10/10 05:11:58;;;;;;;14.68;10.48;;;6.50;99.90;;;;;;5060513;28;20393;-65
2022/10/10 05:14:24;;;;;;;16.10;10.93;;;6.50;99.90;;;;;;5031916;28;20074;-69
2022/10/10 05:16:49;;;;;;;16.45;10.40;;;6.50;99.90;;;;;;5054374;28;20107;-63
2022/10/10 05:19:15;;;;;;;15.38;10.88;;;6.40;99.90;;;;;;5068305;28;20051;-72
2022/10/10 05:21:41;;;;;;;17.38;11.32;;;6.40;99.90;;;;;;5067671;28;20487;-72
2022/10/10 05:24:06;;;;;;;15.88;10.25;;;6.40;99.90;;;;;;5068896;28;20032;-61
2022/10/10 05:26:32;;;;;;;17.48;10.57;;;6.40;99.90;;;;;;5068351;28;20097;-70
2022/10/10 05:28:57;;;;;;;12.95;8.77;;;6.40;99.90;;;;;;5062475;28;20525;-69
2022/10/10 05:31:23;;;;;;;13.27;8.30;;;6.30;99.90;;;;;;5048303;28;20098;-69
2022/10/10 05:33:48;;;;;;;11.80;8.65;;;6.30;99.90;;;;;;5047987;28;20408;-68
2022/10/10 05:36:14;;;;;;;15.23;8.77;;;6.20;99.90;;;;;;5052044;28;20024;-65
2022/10/10 05:38:40;;;;;;;10.88;7.18;;;6.10;99.90;;;;;;5060324;28;20025;-67
2022/10/10 17:20:46;;;;;;;5.30;1.58;;;10.90;99.90;;;;;;5106590;27;20318;-53
2022/10/10 17:23:14;;;;;;;7.72;1.70;;;10.70;99.90;;;;;;5107503;28;20110;-51
2022/10/10 17:25:41;;;;;;;7.72;1.92;;;10.70;99.90;;;;;;5106640;28;20016;-53
2022/10/10 17:28:07;;;;;;;11.82;2.25;;;10.70;99.90;;;;;;5106513;28;20042;-56
2022/10/10 17:30:32;;;;;;;8.55;2.30;;;10.80;99.90;;;;;;5106320;28;20031;-57
2022/10/10 17:32:58;;;;;;;10.98;2.17;;;10.80;99.90;;;;;;5106395;28;20478;-53
2022/10/10 17:35:23;;;;;;;9.45;2.95;;;10.90;99.90;;;;;;5105760;28;20039;-53
2022/10/10 17:37:49;;;;;;;8.50;2.15;;;10.90;99.90;;;;;;5106141;28;20103;-54
2022/10/10 17:40:15;;;;;;;10.70;2.20;;;10.90;99.90;;;;;;5105946;28;20063;-55
2022/10/10 17:42:41;;;;;;;5.90;1.58;;;10.90;99.90;;;;;;5104175;28;20507;-65
2022/10/10 17:45:07;;;;;;;6.75;1.80;;;10.90;99.90;;;;;;5105079;28;20028;-51
2022/10/10 17:47:33;;;;;;;5.47;1.90;;;10.80;99.90;;;;;;5106152;28;20399;-64
2022/10/10 17:49:58;;;;;;;6.45;1.70;;;10.70;99.90;;;;;;5105756;28;20053;-60
2022/10/10 17:52:24;;;;;;;5.50;1.55;;;10.70;99.90;;;;;;5106100;28;20061;-65
2022/10/10 17:54:49;;;;;;;6.95;1.70;;;10.80;99.90;;;;;;5105719;28;20384;-58
2022/10/10 17:57:15;;;;;;;6.88;1.80;;;10.70;99.90;;;;;;5105394;28;20263;-63
2022/10/10 17:59:41;;;;;;;6.18;1.50;;;10.70;99.90;;;;;;5106266;28;20043;-67
2022/10/10 18:02:14;;;;;;;4.57;2.08;;;10.70;99.90;;;;;;5105821;28;20019;-63
2022/10/10 18:04:40;;;;;;;6.55;1.90;;;10.70;99.90;;;;;;5105861;28;20043;-59
2022/10/10 18:07:06;;;;;;;4.35;1.80;;;10.70;99.90;;;;;;5106196;28;20019;-60
2022/10/10 18:09:32;;;;;;;6.80;1.95;;;10.60;99.90;;;;;;5104181;28;20555;-58
2022/10/10 18:11:57;;;;;;;7.38;1.80;;;10.70;99.90;;;;;;5105780;28;20051;-64
2022/10/10 18:14:23;;;;;;;4.88;1.70;;;10.70;99.90;;;;;;5104535;28;20125;-67
2022/10/10 18:16:49;;;;;;;6.32;1.88;;;10.70;99.90;;;;;;5104848;28;20024;-64
2022/10/10 18:19:14;;;;;;;9.75;3.17;;;10.70;99.90;;;;;;5102189;28;20588;-67
2022/10/10 18:21:40;;;;;;;4.15;1.52;;;10.60;99.90;;;;;;5105253;28;20032;-66
2022/10/10 18:24:06;;;;;;;7.05;1.63;;;10.60;99.90;;;;;;5104980;28;20388;-65
2022/10/10 18:26:33;;;;;;;3.10;1.38;;;10.50;99.90;;;;;;5105325;28;20130;-65
2022/10/10 18:28:59;;;;;;;4.38;1.65;;;10.40;99.90;;;;;;5104701;28;20108;-63
2022/10/10 18:31:27;;;;;;;6.07;1.42;;;10.30;99.90;;;;;;5095612;28;20055;-65
2022/10/10 18:33:53;;;;;;;4.78;1.77;;;10.30;99.90;;;;;;5088406;28;20028;-60
2022/10/10 18:36:23;;;;;;;6.10;1.70;;;10.20;99.90;;;;;;5091516;28;20028;-66
2022/10/10 18:38:49;;;;;;;5.65;1.98;;;10.10;99.90;;;;;;5091042;28;20083;-57
2022/10/10 18:41:20;;;;;;;4.80;2.13;;;10.10;99.90;;;;;;5091740;28;20032;-63
2022/10/10 18:43:47;;;;;;;8.48;2.28;;;10.00;99.90;;;;;;5091602;28;20024;-60
2022/10/10 18:46:15;;;;;;;4.85;1.92;;;10.00;99.90;;;;;;5091187;28;20063;-65
2022/10/10 18:48:41;;;;;;;4.88;1.50;;;9.90;99.90;;;;;;5091433;28;20042;-65
2022/10/10 18:51:13;;;;;;;4.00;1.58;;;9.80;99.90;;;;;;5091601;28;20429;-65
2022/10/10 18:53:41;;;;;;;7.85;1.98;;;9.70;99.90;;;;;;5090875;28;20019;-66
2022/10/10 18:56:07;;;;;;;5.78;1.50;;;9.70;99.90;;;;;;5091827;28;20099;-66
2022/10/10 18:58:35;;;;;;;7.47;1.50;;;9.70;99.90;;;;;;5090627;28;20050;-67
2022/10/10 19:01:04;;;;;;;2.83;1.23;;;9.80;99.90;;;;;;5091657;28;20024;-67
2022/10/10 19:03:30;;;;;;;6.00;2.08;;;9.80;99.90;;;;;;5090995;28;20016;-55
2022/10/10 19:05:56;;;;;;;5.85;1.77;;;9.80;99.90;;;;;;5089700;28;20111;-54
2022/10/10 19:08:22;;;;;;;8.93;1.95;;;9.80;99.90;;;;;;5090672;28;20468;-51
2022/10/10 19:10:48;;;;;;;8.10;2.42;;;9.80;99.90;;;;;;5090519;28;20071;-54
2022/10/10 19:13:14;;;;;;;7.97;2.45;;;9.70;99.90;;;;;;5089996;28;20020;-53
2022/10/10 19:15:40;;;;;;;7.90;2.53;;;9.70;99.90;;;;;;5090581;28;20032;-48
2022/10/10 19:18:06;;;;;;;6.95;1.98;;;9.70;99.90;;;;;;5090202;28;20024;-54
2022/10/10 19:20:32;;;;;;;9.15;2.17;;;9.60;99.90;;;;;;5089781;28;20048;-54
2022/10/10 19:22:58;;;;;;;6.55;2.05;;;9.60;99.90;;;;;;5090241;28;20525;-56
2022/10/10 19:25:26;;;;;;;6.32;1.98;;;9.50;99.90;;;;;;5090270;28;20481;-53
2022/10/10 19:27:53;;;;;;;8.10;1.73;;;9.50;99.90;;;;;;5091000;28;20035;-56
2022/10/10 19:30:18;;;;;;;8.88;1.95;;;9.50;99.90;;;;;;5091380;28;20024;-59
2022/10/10 19:32:44;;;;;;;4.63;1.63;;;9.40;99.90;;;;;;5090716;28;20491;-59
2022/10/10 19:35:09;;;;;;;8.73;1.70;;;9.40;99.90;;;;;;5090178;28;20024;-54
2022/10/10 19:37:35;;;;;;;4.50;1.48;;;9.40;99.90;;;;;;5089287;28;20020;-56
2022/10/10 19:40:00;;;;;;;8.38;2.05;;;9.40;99.90;;;;;;5090571;28;20380;-58
2022/10/10 19:42:26;;;;;;;3.75;1.75;;;9.30;99.90;;;;;;5088387;28;20062;-59
2022/10/10 19:44:52;;;;;;;5.45;1.63;;;9.30;99.90;;;;;;5090060;28;20020;-59
2022/10/10 19:47:17;;;;;;;4.30;1.60;;;9.20;99.90;;;;;;5091231;28;20103;-55
2022/10/10 19:49:43;;;;;;;4.28;1.73;;;9.20;99.90;;;;;;5091528;28;20376;-57
2022/10/10 19:52:08;;;;;;;3.47;1.42;;;9.10;99.90;;;;;;5092336;28;20016;-63
2022/10/10 19:54:34;;;;;;;5.90;2.63;;;9.10;99.90;;;;;;5091823;28;20048;-54
2022/10/10 19:57:00;;;;;;;6.45;3.03;;;9.10;99.90;;;;;;5090424;28;20464;-56
2022/10/10 19:59:25;;;;;;;9.18;2.60;;;9.00;99.90;;;;;;5092523;28;20030;-55
2022/10/10 20:01:51;;;;;;;9.77;2.55;;;9.00;99.90;;;;;;5090046;28;20736;-53
2022/10/10 20:04:17;;;;;;;8.18;2.40;;;9.00;99.90;;;;;;5092063;28;20054;-57
2022/10/10 20:06:42;;;;;;;6.32;2.03;;;9.00;99.90;;;;;;5091566;28;20020;-62
2022/10/10 20:09:09;;;;;;;5.95;1.60;;;8.90;99.90;;;;;;5090825;28;20020;-57
2022/10/10 20:11:35;;;;;;;5.35;1.80;;;8.90;99.90;;;;;;5088911;28;20036;-61
2022/10/10 20:14:01;;;;;;;5.25;1.58;;;8.80;99.90;;;;;;5090774;28;20354;-61
2022/10/10 20:16:26;;;;;;;6.90;1.90;;;8.80;99.90;;;;;;5090840;28;20370;-56
2022/10/10 20:18:53;;;;;;;6.35;1.75;;;8.80;99.90;;;;;;5089366;28;20169;-62
2022/10/10 20:21:24;;;;;;;6.05;1.75;;;8.70;99.90;;;;;;5091286;28;20509;-57
2022/10/10 20:23:50;;;;;;;5.30;1.58;;;8.70;99.90;;;;;;5090910;28;20024;-61
2022/10/10 20:26:19;;;;;;;7.15;1.83;;;8.60;99.90;;;;;;5090856;28;20141;-64
2022/10/10 20:28:45;;;;;;;5.10;1.60;;;8.60;99.90;;;;;;5088846;28;20031;-64
2022/10/10 20:31:18;;;;;;;4.05;1.15;;;8.60;99.90;;;;;;5090121;28;20142;-66
2022/10/10 20:33:48;;;;;;;6.22;1.60;;;8.60;99.90;;;;;;5090648;28;20012;-58
2022/10/10 20:36:15;;;;;;;7.68;1.63;;;8.50;99.90;;;;;;5087588;28;20024;-60
2022/10/10 20:38:40;;;;;;;4.63;1.77;;;8.50;99.90;;;;;;5090537;28;20024;-63
2022/10/10 20:41:07;;;;;;;3.55;1.40;;;8.40;99.90;;;;;;5091234;28;20024;-62
2022/10/10 20:43:34;;;;;;;4.50;1.50;;;8.40;99.90;;;;;;5091350;28;20077;-59
2022/10/10 20:46:04;;;;;;;5.88;1.67;;;8.40;99.90;;;;;;5090419;28;20028;-60
2022/10/10 20:48:30;;;;;;;4.07;1.50;;;8.30;99.90;;;;;;5091038;28;20420;-66
2022/10/10 20:51:00;;;;;;;6.50;1.85;;;8.30;99.90;;;;;;5090440;28;20542;-60
2022/10/10 20:53:26;;;;;;;4.13;1.30;;;8.30;99.90;;;;;;5090939;28;20036;-55
2022/10/10 20:55:53;;;;;;;4.15;1.40;;;8.20;99.90;;;;;;5090712;28;20066;-55
2022/10/10 20:58:18;;;;;;;6.20;1.75;;;8.30;99.90;;;;;;5090435;28;20400;-56
2022/10/10 21:00:44;;;;;;;5.50;1.85;;;8.20;99.90;;;;;;5090819;28;20485;-62
2022/10/10 21:03:09;;;;;;;6.68;2.08;;;8.30;99.90;;;;;;5091018;28;20089;-56
2022/10/10 21:05:35;;;;;;;4.90;1.98;;;8.30;99.90;;;;;;5090313;28;20050;-58
2022/10/10 21:08:01;;;;;;;4.32;1.90;;;8.30;99.90;;;;;;5090769;28;20032;-55
2022/10/10 21:10:26;;;;;;;7.78;2.70;;;8.30;99.90;;;;;;5090680;28;20031;-65
2022/10/10 21:12:52;;;;;;;4.43;2.15;;;8.30;99.90;;;;;;5090039;28;20020;-63
2022/10/10 21:15:17;;;;;;;5.20;1.95;;;8.30;99.90;;;;;;5091020;28;20043;-63
2022/10/10 21:17:46;;;;;;;4.72;2.00;;;8.20;99.90;;;;;;5090423;28;20030;-56
2022/10/10 21:20:12;;;;;;;3.10;1.85;;;8.20;99.90;;;;;;5089440;28;20058;-51
2022/10/10 21:22:37;;;;;;;6.50;2.15;;;8.20;99.90;;;;;;5090172;28;20107;-48
2022/10/10 21:25:03;;;;;;;10.05;1.80;;;8.20;99.90;;;;;;5090500;28;20050;-51
2022/10/10 21:27:29;;;;;;;6.45;2.30;;;8.20;99.90;;;;;;5089715;28;20016;-48
2022/10/10 21:29:54;;;;;;;7.43;1.80;;;8.20;99.90;;;;;;5090318;28;20020;-48
2022/10/10 21:32:20;;;;;;;6.60;2.05;;;8.20;99.90;;;;;;5090258;28;20047;-53
2022/10/10 21:34:45;;;;;;;5.45;2.17;;;8.20;99.90;;;;;;5089669;28;20048;-55
2022/10/10 21:37:11;;;;;;;5.85;2.40;;;8.20;99.90;;;;;;5090949;28;20027;-56
2022/10/10 21:39:37;;;;;;;5.85;2.28;;;8.20;99.90;;;;;;5090529;28;20119;-53
2022/10/10 21:42:02;;;;;;;4.20;2.00;;;8.20;99.90;;;;;;5090115;28;20425;-49
2022/10/10 21:44:28;;;;;;;8.95;2.33;;;8.20;99.90;;;;;;5091165;28;20191;-64
2022/10/10 21:46:53;;;;;;;10.00;2.22;;;8.20;99.90;;;;;;5090522;28;20024;-61
2022/10/10 21:49:19;;;;;;;8.73;1.92;;;8.10;99.90;;;;;;5089951;28;20610;-56
2022/10/10 21:51:45;;;;;;;6.05;1.98;;;8.10;99.90;;;;;;5090077;28;20370;-60
2022/10/10 21:54:11;;;;;;;4.68;2.17;;;8.10;99.90;;;;;;5089860;28;20020;-55
2022/10/10 21:56:37;;;;;;;7.22;2.25;;;8.10;99.90;;;;;;5089930;28;20024;-52
2022/10/10 21:59:03;;;;;;;3.95;1.92;;;8.10;99.90;;;;;;5090223;28;20020;-57
2022/10/10 22:01:31;;;;;;;7.40;2.30;;;8.00;99.90;;;;;;5089934;28;20030;-53
2022/10/10 22:03:58;;;;;;;4.55;1.80;;;8.00;99.90;;;;;;5090079;28;20498;-57
2022/10/10 22:06:24;;;;;;;4.15;1.88;;;7.90;99.90;;;;;;5091910;28;20051;-55
2022/10/10 22:08:51;;;;;;;6.75;2.28;;;7.90;99.90;;;;;;5093145;28;20096;-50
2022/10/10 22:11:23;;;;;;;9.95;1.90;;;7.90;99.90;;;;;;5094003;28;20550;-60
2022/10/10 22:13:49;;;;;;;6.05;2.35;;;7.90;99.90;;;;;;5093848;28;20020;-51
2022/10/10 22:16:15;;;;;;;7.05;1.80;;;7.90;99.90;;;;;;5093412;28;20019;-54
2022/10/10 22:18:41;;;;;;;11.05;2.35;;;8.00;99.90;;;;;;5093303;28;20039;-54
2022/10/10 22:21:11;;;;;;;6.93;2.33;;;8.00;99.90;;;;;;5093898;28;20494;-57
2022/10/10 22:23:36;;;;;;;10.00;2.45;;;8.10;99.90;;;;;;5093238;28;20103;-55
2022/10/10 22:26:07;;;;;;;5.40;1.90;;;8.10;99.90;;;;;;5094022;28;20146;-58
2022/10/10 22:28:32;;;;;;;4.47;1.73;;;8.10;99.90;;;;;;5093938;28;20044;-51
2022/10/10 22:31:05;;;;;;;6.30;1.73;;;8.00;99.90;;;;;;5093277;28;20067;-52
2022/10/10 22:33:31;;;;;;;5.80;1.90;;;8.00;99.90;;;;;;5093977;28;20024;-58
2022/10/10 22:35:56;;;;;;;8.63;1.90;;;8.00;99.90;;;;;;5091716;28;20051;-60
2022/10/10 22:38:22;;;;;;;6.40;2.28;;;7.90;99.90;;;;;;5091658;28;20431;-57
2022/10/10 22:40:48;;;;;;;5.22;1.67;;;7.90;99.90;;;;;;5093131;28;20492;-58
2022/10/10 22:43:13;;;;;;;9.45;2.00;;;7.90;99.90;;;;;;5093916;28;20024;-56
2022/10/10 22:45:39;;;;;;;3.78;1.92;;;7.90;99.90;;;;;;5092783;28;20472;-58
2022/10/10 22:48:05;;;;;;;5.80;2.10;;;7.90;99.90;;;;;;5093677;28;20487;-50
2022/10/10 22:50:30;;;;;;;4.60;1.50;;;7.90;99.90;;;;;;5093025;28;20047;-53
2022/10/10 22:52:56;;;;;;;6.40;1.98;;;7.90;99.90;;;;;;5093025;28;20024;-55
2022/10/10 22:55:22;;;;;;;5.47;1.80;;;7.90;99.90;;;;;;5093511;28;20020;-49
2022/10/10 22:57:47;;;;;;;6.03;1.77;;;7.90;99.90;;;;;;5092145;28;20186;-54
2022/10/10 23:00:14;;;;;;;6.13;1.70;;;7.80;99.90;;;;;;5093255;28;20074;-63
2022/10/10 23:02:39;;;;;;;8.23;1.70;;;7.90;99.90;;;;;;5092665;28;20020;-51
2022/10/10 23:05:05;;;;;;;5.40;1.88;;;7.80;99.90;;;;;;5092858;28;20430;-59
2022/10/10 23:07:31;;;;;;;7.82;1.55;;;7.80;99.90;;;;;;5093236;28;20044;-65
2022/10/10 23:09:56;;;;;;;4.72;1.73;;;7.80;99.90;;;;;;5093061;28;20502;-63
2022/10/10 23:12:22;;;;;;;5.72;2.17;;;7.80;99.90;;;;;;5093018;28;20020;-63
2022/10/10 23:14:48;;;;;;;4.70;1.77;;;7.80;99.90;;;;;;5093485;28;20016;-65
2022/10/10 23:17:13;;;;;;;4.00;1.70;;;7.70;99.90;;;;;;5093466;28;20020;-66
2022/10/10 23:19:39;;;;;;;5.40;1.42;;;7.70;99.90;;;;;;5092164;28;20052;-65
2022/10/10 23:22:04;;;;;;;9.00;2.03;;;7.70;99.90;;;;;;5093627;28;20020;-66
2022/10/10 23:24:30;;;;;;;4.25;2.00;;;7.70;99.90;;;;;;5093402;28;20090;-65
2022/10/10 23:26:56;;;;;;;5.13;1.98;;;7.60;99.90;;;;;;5092560;28;20051;-67
2022/10/10 23:29:21;;;;;;;9.05;2.00;;;7.70;99.90;;;;;;5093256;28;20103;-65
2022/10/10 23:31:47;;;;;;;4.85;1.73;;;7.70;99.90;;;;;;5092979;28;20031;-65
2022/10/10 23:34:12;;;;;;;4.68;1.70;;;7.70;99.90;;;;;;5092458;28;20123;-48
2022/10/10 23:36:38;;;;;;;5.50;2.50;;;7.60;99.90;;;;;;5092210;28;20031;-50
2022/10/10 23:39:04;;;;;;;5.53;2.20;;;7.60;99.90;;;;;;5092752;28;20033;-48
2022/10/10 23:41:29;;;;;;;6.55;2.53;;;7.60;99.90;;;;;;5092042;28;20024;-52
2022/10/10 23:43:55;;;;;;;5.78;2.08;;;7.50;99.90;;;;;;5092760;28;20032;-51
2022/10/10 23:46:21;;;;;;;4.13;2.00;;;7.50;99.90;;;;;;5093719;28;20016;-58
2022/10/10 23:48:47;;;;;;;6.45;2.08;;;7.50;99.90;;;;;;5091825;28;20028;-65
2022/10/10 23:51:14;;;;;;;5.95;1.67;;;7.50;99.90;;;;;;5091490;28;20369;-63
2022/10/10 23:53:40;;;;;;;2.70;1.70;;;7.40;99.90;;;;;;5091999;28;20380;-66
2022/10/10 23:56:06;;;;;;;6.07;2.28;;;7.40;99.90;;;;;;5092685;28;20223;-67
2022/10/10 23:58:31;;;;;;;4.10;1.98;;;7.30;99.90;;;;;;5092319;28;20032;-50
